KDAAKOXB

Guest
Details From KDAA - DAVISON AAF
To KOXB - OCEAN CITY MUNI
Flight Number -
Tags generated
Created
Modified
Stats Distance 100 nm / 185 km
Max Altitude 9,800 ft / 2,987 m
Waypoints 3
Social Downloads 0
Likes 0
Share VATSIM

Download

Looking for another format? Having issues loading an existing format? Contact us
Advertisement - Login to hide

Notes

Basic altitude profile: - Ascent Rate: 2500ft/min - Ascent Speed: 250kts - Cruise Altitude: 35000ft - Cruise Speed: 420kts - Descent Rate: 1500ft/min - Descent Speed: 250kts Options: - Use NATs: yes - Use PACOTS: yes - Use low airways: yes - Use high airways: yes

Route

KDAA ARUYE KOXB

ID Type Via Altitude Latitude Longitude Leg Dist Tot Dist Heading (true) Name
O KDAA APT - 0 ft / 0 m 38.71511˚ -77.18114˚ - 0 nm - DAVISON AAF
ARUYE FIX - 9,800 ft / 2,987 m 38.58979˚ -76.55571˚ 30 nm 30 nm 104° / 105° -
O KOXB APT - 0 ft / 0 m 38.31048˚ -75.12428˚ 69 nm 99 nm 104° / 104° OCEAN CITY MUNI

Altitude Profile

Advertisement - Login to hide

KDAA

Details ICAO KDAA
Name DAVISON AAF
Region United States
Timezone America/New_York (UTC-5.0)
Stats Elevation 73 ft / 22 m (AMSL)
Location 38.715111° -77.181145°
Runways 1
Magnetic Variation 10.709° W

METAR

KDAA 131456Z AUTO 28016G22KT 10SM CLR M03/M16 A2986 RMK AO2 PK WND 29026/28 SLP116 T10271161 50007 $

Decode

TAF

TAF TAF KDAA 131000Z 1310/1416 30015G25KT 9999 FEW050 QNH2979INS TEMPO 1310/1318 31025G35KT 510003 BECMG 1320/1321 21009KT 9999 BKN080 BKN150 WS019/23040KT 620807 QNH2956INS TX01/1406Z TNM06/1312Z

Decode

Departure Runways

ID Width Length Bearing (true) Bearing (mag) Surface Threshold Offset Overrun Length
14 74 ft / 23 m 5,618 ft / 1,712 m 133.59° 144.30° Asphalt 687 ft / 209 m 500 ft / 152 m
32 74 ft / 23 m 5,618 ft / 1,712 m 313.60° 324.31° Asphalt 891 ft / 272 m 200 ft / 61 m

KOXB

Details ICAO KOXB
Name OCEAN CITY MUNI
Region United States
Timezone America/New_York (UTC-5.0)
Stats Elevation 11 ft / 3 m (AMSL)
Location 38.310483° -75.124276°
Runways 2
Magnetic Variation 11.783° W

METAR

KOXB 131453Z AUTO 28017G30KT 10SM CLR M03/M14 A2982 RMK AO2 PK WND 28032/1425 SLP096 T10331144 51008

Decode

TAF

Not found

Destination Runways

ID Width Length Bearing (true) Bearing (mag) Surface Threshold Offset Overrun Length
02 75 ft / 23 m 3,206 ft / 977 m 10.10° 21.88° Asphalt 0 ft / 0 m 0 ft / 0 m
14 75 ft / 23 m 4,071 ft / 1,241 m 133.24° 145.02° Asphalt 0 ft / 0 m 0 ft / 0 m
20 75 ft / 23 m 3,206 ft / 977 m 190.10° 201.88° Asphalt 0 ft / 0 m 0 ft / 0 m
32 75 ft / 23 m 4,071 ft / 1,241 m 313.25° 325.03° Asphalt 0 ft / 0 m 0 ft / 0 m